sensor_id;sensor_type;location;lat;lon;timestamp;pressure;altitude;pressure_sealevel;temperature;humidity
70027;BME280;57506;50.092;15.804;2023-01-08T00:02:20;98865.66;;;-0.34;100.00
70027;BME280;57506;50.092;15.804;2023-01-08T00:04:46;98852.50;;;-0.46;100.00
70027;BME280;57506;50.092;15.804;2023-01-08T00:07:11;98866.63;;;-0.36;100.00
70027;BME280;57506;50.092;15.804;2023-01-08T00:09:37;98856.19;;;-0.37;100.00
70027;BME280;57506;50.092;15.804;2023-01-08T00:12:02;98869.03;;;-0.32;100.00
70027;BME280;57506;50.092;15.804;2023-01-08T00:14:29;98867.34;;;-0.33;100.00
70027;BME280;57506;50.092;15.804;2023-01-08T00:16:54;98871.38;;;-0.29;100.00
70027;BME280;57506;50.092;15.804;2023-01-08T00:19:20;98857.31;;;-0.30;100.00
70027;BME280;57506;50.092;15.804;2023-01-08T00:21:46;98853.28;;;-0.24;100.00
70027;BME280;57506;50.092;15.804;2023-01-08T00:24:11;98837.66;;;-0.27;100.00
70027;BME280;57506;50.092;15.804;2023-01-08T00:26:37;98837.25;;;-0.32;100.00
70027;BME280;57506;50.092;15.804;2023-01-08T00:29:02;98843.53;;;-0.33;100.00
70027;BME280;57506;50.092;15.804;2023-01-08T00:31:28;98856.75;;;-0.33;100.00
70027;BME280;57506;50.092;15.804;2023-01-08T00:33:53;98858.69;;;-0.36;100.00
70027;BME280;57506;50.092;15.804;2023-01-08T00:36:19;98858.34;;;-0.52;100.00
70027;BME280;57506;50.092;15.804;2023-01-08T00:38:45;98856.34;;;-0.59;100.00
70027;BME280;57506;50.092;15.804;2023-01-08T00:41:12;98832.66;;;-0.61;100.00
70027;BME280;57506;50.092;15.804;2023-01-08T00:43:39;98840.81;;;-0.03;100.00
70027;BME280;57506;50.092;15.804;2023-01-08T00:46:05;98835.94;;;0.02;100.00
70027;BME280;57506;50.092;15.804;2023-01-08T00:48:31;98829.97;;;0.10;100.00
70027;BME280;57506;50.092;15.804;2023-01-08T00:51:00;98795.78;;;-0.03;100.00
70027;BME280;57506;50.092;15.804;2023-01-08T00:53:26;98813.84;;;0.32;100.00
70027;BME280;57506;50.092;15.804;2023-01-08T00:56:01;98792.19;;;0.08;100.00
70027;BME280;57506;50.092;15.804;2023-01-08T00:58:27;98809.03;;;-0.03;100.00
70027;BME280;57506;50.092;15.804;2023-01-08T01:00:53;98814.84;;;-0.19;100.00
70027;BME280;57506;50.092;15.804;2023-01-08T01:03:18;98827.84;;;-0.46;100.00
70027;BME280;57506;50.092;15.804;2023-01-08T01:05:44;98846.84;;;-0.62;100.00
70027;BME280;57506;50.092;15.804;2023-01-08T01:08:09;98854.13;;;-0.85;100.00
70027;BME280;57506;50.092;15.804;2023-01-08T01:10:37;98858.59;;;-0.85;100.00
70027;BME280;57506;50.092;15.804;2023-01-08T01:13:03;98848.75;;;-0.94;100.00
70027;BME280;57506;50.092;15.804;2023-01-08T01:15:28;98846.66;;;-1.00;100.00
70027;BME280;57506;50.092;15.804;2023-01-08T01:17:54;98849.06;;;-0.97;100.00
70027;BME280;57506;50.092;15.804;2023-01-08T01:20:19;98826.25;;;-0.89;100.00
70027;BME280;57506;50.092;15.804;2023-01-08T01:22:45;98829.22;;;-0.82;100.00
70027;BME280;57506;50.092;15.804;2023-01-08T01:25:10;98843.09;;;-0.90;100.00
70027;BME280;57506;50.092;15.804;2023-01-08T01:27:36;98848.13;;;-1.08;100.00
70027;BME280;57506;50.092;15.804;2023-01-08T01:30:02;98845.63;;;-1.09;100.00
70027;BME280;57506;50.092;15.804;2023-01-08T01:32:28;98837.25;;;-1.14;100.00
70027;BME280;57506;50.092;15.804;2023-01-08T01:34:53;98822.13;;;-1.23;100.00
70027;BME280;57506;50.092;15.804;2023-01-08T01:37:19;98833.56;;;-1.23;100.00
70027;BME280;57506;50.092;15.804;2023-01-08T01:39:44;98853.63;;;-1.20;100.00
70027;BME280;57506;50.092;15.804;2023-01-08T01:42:15;98839.63;;;-1.32;100.00
70027;BME280;57506;50.092;15.804;2023-01-08T01:45:03;98852.38;;;-1.37;100.00
70027;BME280;57506;50.092;15.804;2023-01-08T01:47:35;98857.44;;;-1.45;100.00
70027;BME280;57506;50.092;15.804;2023-01-08T01:52:29;98847.22;;;-1.38;100.00
70027;BME280;57506;50.092;15.804;2023-01-08T01:54:58;98856.81;;;-1.37;100.00
70027;BME280;57506;50.092;15.804;2023-01-08T01:57:24;98855.41;;;-1.21;100.00
70027;BME280;57506;50.092;15.804;2023-01-08T01:59:52;98835.38;;;-1.02;100.00
70027;BME280;57506;50.092;15.804;2023-01-08T02:02:18;98817.50;;;-1.10;100.00
70027;BME280;57506;50.092;15.804;2023-01-08T02:04:44;98853.81;;;-0.91;100.00
70027;BME280;57506;50.092;15.804;2023-01-08T02:07:36;98846.06;;;-0.83;100.00
70027;BME280;57506;50.092;15.804;2023-01-08T02:10:57;98818.81;;;-0.74;100.00
70027;BME280;57506;50.092;15.804;2023-01-08T02:13:11;98810.00;;;-0.54;100.00
70027;BME280;57506;50.092;15.804;2023-01-08T02:15:52;98825.59;;;-0.20;100.00
70027;BME280;57506;50.092;15.804;2023-01-08T02:18:35;98830.78;;;0.00;100.00
70027;BME280;57506;50.092;15.804;2023-01-08T02:21:07;98820.78;;;0.14;100.00
70027;BME280;57506;50.092;15.804;2023-01-08T02:23:46;98807.00;;;0.29;100.00
70027;BME280;57506;50.092;15.804;2023-01-08T02:29:27;98806.56;;;0.44;100.00
70027;BME280;57506;50.092;15.804;2023-01-08T02:31:29;98815.50;;;0.62;100.00
70027;BME280;57506;50.092;15.804;2023-01-08T02:33:55;98808.53;;;0.42;100.00
70027;BME280;57506;50.092;15.804;2023-01-08T02:47:32;98814.66;;;0.52;100.00
70027;BME280;57506;50.092;15.804;2023-01-08T02:50:34;98810.31;;;0.51;100.00
70027;BME280;57506;50.092;15.804;2023-01-08T02:53:32;98790.41;;;0.47;100.00
70027;BME280;57506;50.092;15.804;2023-01-08T02:56:03;98799.06;;;0.49;100.00
70027;BME280;57506;50.092;15.804;2023-01-08T02:58:31;98799.72;;;0.51;100.00
70027;BME280;57506;50.092;15.804;2023-01-08T03:00:59;98774.88;;;0.52;100.00
70027;BME280;57506;50.092;15.804;2023-01-08T03:03:27;98782.56;;;0.64;100.00
70027;BME280;57506;50.092;15.804;2023-01-08T03:05:57;98763.03;;;0.56;100.00
70027;BME280;57506;50.092;15.804;2023-01-08T03:08:23;98765.41;;;0.59;100.00
70027;BME280;57506;50.092;15.804;2023-01-08T03:10:57;98760.22;;;0.67;100.00
70027;BME280;57506;50.092;15.804;2023-01-08T03:13:39;98760.78;;;0.80;100.00
70027;BME280;57506;50.092;15.804;2023-01-08T03:16:10;98761.88;;;0.68;100.00
70027;BME280;57506;50.092;15.804;2023-01-08T03:18:44;98776.13;;;0.67;100.00
70027;BME280;57506;50.092;15.804;2023-01-08T03:21:11;98767.75;;;0.72;100.00
70027;BME280;57506;50.092;15.804;2023-01-08T03:23:38;98759.56;;;0.65;100.00
70027;BME280;57506;50.092;15.804;2023-01-08T03:26:06;98758.97;;;0.81;100.00
70027;BME280;57506;50.092;15.804;2023-01-08T03:28:36;98751.00;;;0.81;100.00
70027;BME280;57506;50.092;15.804;2023-01-08T03:31:04;98758.41;;;0.77;100.00
70027;BME280;57506;50.092;15.804;2023-01-08T03:33:31;98745.56;;;0.73;100.00
70027;BME280;57506;50.092;15.804;2023-01-08T03:36:00;98751.25;;;0.87;100.00
70027;BME280;57506;50.092;15.804;2023-01-08T03:38:33;98738.72;;;0.80;100.00
70027;BME280;57506;50.092;15.804;2023-01-08T03:41:09;98749.44;;;0.88;100.00
70027;BME280;57506;50.092;15.804;2023-01-08T03:43:37;98744.97;;;0.88;100.00
70027;BME280;57506;50.092;15.804;2023-01-08T03:46:08;98744.69;;;0.91;100.00
70027;BME280;57506;50.092;15.804;2023-01-08T03:48:34;98741.59;;;0.96;100.00
70027;BME280;57506;50.092;15.804;2023-01-08T03:51:00;98732.56;;;1.16;100.00
70027;BME280;57506;50.092;15.804;2023-01-08T03:53:26;98733.94;;;0.83;100.00
70027;BME280;57506;50.092;15.804;2023-01-08T03:55:52;98730.84;;;0.97;100.00
70027;BME280;57506;50.092;15.804;2023-01-08T03:58:17;98724.09;;;1.13;100.00
70027;BME280;57506;50.092;15.804;2023-01-08T04:00:43;98717.22;;;1.20;100.00
70027;BME280;57506;50.092;15.804;2023-01-08T04:03:08;98723.56;;;0.99;100.00
70027;BME280;57506;50.092;15.804;2023-01-08T04:05:34;98703.28;;;0.71;100.00
70027;BME280;57506;50.092;15.804;2023-01-08T04:07:59;98724.38;;;1.10;100.00
70027;BME280;57506;50.092;15.804;2023-01-08T04:10:25;98723.19;;;0.85;100.00
70027;BME280;57506;50.092;15.804;2023-01-08T04:12:51;98725.69;;;0.86;100.00
70027;BME280;57506;50.092;15.804;2023-01-08T04:15:16;98716.91;;;0.95;100.00
70027;BME280;57506;50.092;15.804;2023-01-08T04:17:42;98707.97;;;1.51;100.00
70027;BME280;57506;50.092;15.804;2023-01-08T04:20:08;98691.09;;;1.88;100.00
70027;BME280;57506;50.092;15.804;2023-01-08T04:22:33;98694.50;;;1.98;100.00
70027;BME280;57506;50.092;15.804;2023-01-08T04:24:59;98681.84;;;1.92;100.00
70027;BME280;57506;50.092;15.804;2023-01-08T04:27:24;98673.78;;;2.19;100.00
70027;BME280;57506;50.092;15.804;2023-01-08T04:29:50;98675.06;;;2.15;100.00
70027;BME280;57506;50.092;15.804;2023-01-08T04:32:15;98684.63;;;2.43;100.00
70027;BME280;57506;50.092;15.804;2023-01-08T04:34:41;98688.69;;;2.56;100.00
70027;BME280;57506;50.092;15.804;2023-01-08T04:37:06;98689.00;;;2.53;100.00
70027;BME280;57506;50.092;15.804;2023-01-08T04:39:31;98681.28;;;2.41;100.00
70027;BME280;57506;50.092;15.804;2023-01-08T04:41:57;98694.63;;;2.50;100.00
70027;BME280;57506;50.092;15.804;2023-01-08T04:44:23;98675.84;;;2.51;100.00
70027;BME280;57506;50.092;15.804;2023-01-08T04:46:48;98691.13;;;2.49;100.00
70027;BME280;57506;50.092;15.804;2023-01-08T04:49:13;98669.81;;;2.41;100.00
70027;BME280;57506;50.092;15.804;2023-01-08T04:51:39;98673.97;;;2.43;100.00
70027;BME280;57506;50.092;15.804;2023-01-08T04:54:04;98678.47;;;2.43;100.00
70027;BME280;57506;50.092;15.804;2023-01-08T04:56:30;98683.97;;;2.50;100.00
70027;BME280;57506;50.092;15.804;2023-01-08T04:58:56;98690.81;;;2.78;100.00
70027;BME280;57506;50.092;15.804;2023-01-08T05:01:23;98674.22;;;2.84;100.00
70027;BME280;57506;50.092;15.804;2023-01-08T05:03:54;98673.69;;;2.80;100.00
70027;BME280;57506;50.092;15.804;2023-01-08T05:06:20;98653.53;;;2.70;100.00
70027;BME280;57506;50.092;15.804;2023-01-08T05:08:45;98684.47;;;2.71;100.00
70027;BME280;57506;50.092;15.804;2023-01-08T05:11:11;98666.34;;;2.49;100.00
70027;BME280;57506;50.092;15.804;2023-01-08T05:13:36;98675.81;;;2.69;100.00
70027;BME280;57506;50.092;15.804;2023-01-08T05:16:02;98651.59;;;2.54;100.00
70027;BME280;57506;50.092;15.804;2023-01-08T05:18:28;98662.94;;;2.56;100.00
70027;BME280;57506;50.092;15.804;2023-01-08T05:20:54;98660.00;;;2.67;100.00
70027;BME280;57506;50.092;15.804;2023-01-08T05:23:19;98668.13;;;2.66;100.00
70027;BME280;57506;50.092;15.804;2023-01-08T05:25:45;98660.47;;;2.63;100.00
70027;BME280;57506;50.092;15.804;2023-01-08T05:28:10;98652.91;;;2.50;100.00
70027;BME280;57506;50.092;15.804;2023-01-08T05:30:36;98630.59;;;2.43;100.00
70027;BME280;57506;50.092;15.804;2023-01-08T05:33:02;98637.47;;;2.54;100.00
70027;BME280;57506;50.092;15.804;2023-01-08T05:35:27;98619.78;;;2.44;100.00
70027;BME280;57506;50.092;15.804;2023-01-08T05:37:52;98626.75;;;2.45;100.00
70027;BME280;57506;50.092;15.804;2023-01-08T05:40:18;98624.06;;;2.63;100.00
70027;BME280;57506;50.092;15.804;2023-01-08T05:42:43;98619.84;;;2.53;100.00
70027;BME280;57506;50.092;15.804;2023-01-08T05:45:09;98619.53;;;2.56;100.00
70027;BME280;57506;50.092;15.804;2023-01-08T05:47:35;98618.47;;;2.49;100.00
70027;BME280;57506;50.092;15.804;2023-01-08T05:50:00;98613.31;;;2.47;100.00
70027;BME280;57506;50.092;15.804;2023-01-08T05:52:26;98629.91;;;2.67;100.00
70027;BME280;57506;50.092;15.804;2023-01-08T05:54:52;98629.44;;;2.71;100.00
70027;BME280;57506;50.092;15.804;2023-01-08T05:57:17;98596.88;;;2.43;100.00
70027;BME280;57506;50.092;15.804;2023-01-08T05:59:43;98615.50;;;2.52;100.00
70027;BME280;57506;50.092;15.804;2023-01-08T06:02:08;98622.31;;;2.28;100.00
70027;BME280;57506;50.092;15.804;2023-01-08T06:04:33;98629.72;;;2.17;100.00
70027;BME280;57506;50.092;15.804;2023-01-08T06:06:59;98631.13;;;2.29;100.00
70027;BME280;57506;50.092;15.804;2023-01-08T06:09:24;98634.59;;;2.21;100.00
70027;BME280;57506;50.092;15.804;2023-01-08T06:11:50;98638.69;;;1.98;100.00
70027;BME280;57506;50.092;15.804;2023-01-08T06:14:17;98642.81;;;1.92;100.00
70027;BME280;57506;50.092;15.804;2023-01-08T06:16:42;98629.44;;;1.84;100.00
70027;BME280;57506;50.092;15.804;2023-01-08T06:19:09;98644.41;;;1.67;100.00
70027;BME280;57506;50.092;15.804;2023-01-08T06:21:35;98635.97;;;1.54;100.00
70027;BME280;57506;50.092;15.804;2023-01-08T06:24:00;98640.88;;;1.49;100.00
70027;BME280;57506;50.092;15.804;2023-01-08T06:26:26;98636.97;;;1.53;100.00
70027;BME280;57506;50.092;15.804;2023-01-08T06:28:51;98631.56;;;1.45;100.00
70027;BME280;57506;50.092;15.804;2023-01-08T06:31:17;98637.78;;;1.36;100.00
70027;BME280;57506;50.092;15.804;2023-01-08T06:33:42;98640.66;;;0.97;100.00
70027;BME280;57506;50.092;15.804;2023-01-08T06:36:08;98640.66;;;0.97;100.00
70027;BME280;57506;50.092;15.804;2023-01-08T06:38:34;98628.59;;;1.03;100.00
70027;BME280;57506;50.092;15.804;2023-01-08T06:41:08;98625.50;;;1.08;100.00
70027;BME280;57506;50.092;15.804;2023-01-08T06:43:35;98628.03;;;0.99;100.00
70027;BME280;57506;50.092;15.804;2023-01-08T06:46:01;98623.94;;;0.87;100.00
70027;BME280;57506;50.092;15.804;2023-01-08T06:48:27;98627.13;;;0.91;100.00
70027;BME280;57506;50.092;15.804;2023-01-08T06:50:52;98621.19;;;0.79;100.00
70027;BME280;57506;50.092;15.804;2023-01-08T06:53:18;98617.63;;;0.51;100.00
70027;BME280;57506;50.092;15.804;2023-01-08T06:55:44;98614.84;;;0.62;100.00
70027;BME280;57506;50.092;15.804;2023-01-08T06:58:10;98578.16;;;1.13;100.00
70027;BME280;57506;50.092;15.804;2023-01-08T07:00:39;98565.84;;;1.47;100.00
70027;BME280;57506;50.092;15.804;2023-01-08T07:03:05;98580.66;;;1.67;100.00
70027;BME280;57506;50.092;15.804;2023-01-08T07:05:30;98580.72;;;1.93;100.00
70027;BME280;57506;50.092;15.804;2023-01-08T07:07:56;98565.16;;;1.81;100.00
70027;BME280;57506;50.092;15.804;2023-01-08T07:10:22;98578.97;;;1.66;100.00
70027;BME280;57506;50.092;15.804;2023-01-08T07:12:48;98585.44;;;1.64;100.00
70027;BME280;57506;50.092;15.804;2023-01-08T07:15:14;98592.56;;;1.81;100.00
70027;BME280;57506;50.092;15.804;2023-01-08T07:17:40;98597.28;;;1.69;100.00
70027;BME280;57506;50.092;15.804;2023-01-08T07:20:06;98605.00;;;1.63;100.00
70027;BME280;57506;50.092;15.804;2023-01-08T07:22:32;98624.00;;;1.68;100.00
70027;BME280;57506;50.092;15.804;2023-01-08T07:24:57;98613.91;;;1.71;100.00
70027;BME280;57506;50.092;15.804;2023-01-08T07:27:23;98606.63;;;1.73;100.00
70027;BME280;57506;50.092;15.804;2023-01-08T07:29:48;98599.03;;;1.79;100.00
70027;BME280;57506;50.092;15.804;2023-01-08T07:32:14;98599.38;;;2.01;100.00
70027;BME280;57506;50.092;15.804;2023-01-08T07:34:39;98607.56;;;2.08;100.00
70027;BME280;57506;50.092;15.804;2023-01-08T07:37:05;98591.66;;;2.16;100.00
70027;BME280;57506;50.092;15.804;2023-01-08T07:39:30;98595.19;;;2.42;100.00
70027;BME280;57506;50.092;15.804;2023-01-08T07:41:56;98593.47;;;2.59;100.00
70027;BME280;57506;50.092;15.804;2023-01-08T07:44:22;98588.72;;;2.79;100.00
70027;BME280;57506;50.092;15.804;2023-01-08T07:46:48;98557.78;;;2.78;100.00
70027;BME280;57506;50.092;15.804;2023-01-08T07:49:13;98585.50;;;3.09;100.00
70027;BME280;57506;50.092;15.804;2023-01-08T07:51:39;98572.56;;;3.14;100.00
70027;BME280;57506;50.092;15.804;2023-01-08T07:54:05;98580.06;;;3.27;100.00
70027;BME280;57506;50.092;15.804;2023-01-08T07:56:30;98576.25;;;3.30;100.00
70027;BME280;57506;50.092;15.804;2023-01-08T07:58:56;98581.44;;;3.47;100.00
70027;BME280;57506;50.092;15.804;2023-01-08T08:01:22;98571.28;;;3.43;100.00
70027;BME280;57506;50.092;15.804;2023-01-08T08:03:48;98583.63;;;3.60;100.00
70027;BME280;57506;50.092;15.804;2023-01-08T08:06:14;98580.81;;;3.70;100.00
70027;BME280;57506;50.092;15.804;2023-01-08T08:08:39;98571.31;;;3.59;100.00
70027;BME280;57506;50.092;15.804;2023-01-08T08:11:05;98583.31;;;3.79;100.00
70027;BME280;57506;50.092;15.804;2023-01-08T08:13:30;98587.66;;;3.80;100.00
70027;BME280;57506;50.092;15.804;2023-01-08T08:16:00;98580.16;;;3.84;100.00
70027;BME280;57506;50.092;15.804;2023-01-08T08:18:26;98586.31;;;3.93;100.00
70027;BME280;57506;50.092;15.804;2023-01-08T08:20:51;98582.00;;;4.00;100.00
70027;BME280;57506;50.092;15.804;2023-01-08T08:23:17;98573.84;;;4.01;100.00
70027;BME280;57506;50.092;15.804;2023-01-08T08:25:42;98574.66;;;4.10;100.00
70027;BME280;57506;50.092;15.804;2023-01-08T08:28:10;98575.16;;;4.13;100.00
70027;BME280;57506;50.092;15.804;2023-01-08T08:30:36;98561.97;;;4.12;100.00
70027;BME280;57506;50.092;15.804;2023-01-08T08:33:03;98580.63;;;4.28;100.00
70027;BME280;57506;50.092;15.804;2023-01-08T08:35:30;98579.63;;;4.29;100.00
70027;BME280;57506;50.092;15.804;2023-01-08T08:37:56;98564.13;;;4.33;100.00
70027;BME280;57506;50.092;15.804;2023-01-08T08:40:23;98580.59;;;4.52;100.00
70027;BME280;57506;50.092;15.804;2023-01-08T08:42:54;98584.06;;;4.69;100.00
70027;BME280;57506;50.092;15.804;2023-01-08T08:45:20;98579.34;;;4.71;100.00
70027;BME280;57506;50.092;15.804;2023-01-08T08:47:45;98569.19;;;4.75;100.00
70027;BME280;57506;50.092;15.804;2023-01-08T08:50:11;98583.69;;;4.80;100.00
70027;BME280;57506;50.092;15.804;2023-01-08T08:52:37;98576.63;;;4.96;100.00
70027;BME280;57506;50.092;15.804;2023-01-08T08:55:02;98569.94;;;5.00;100.00
70027;BME280;57506;50.092;15.804;2023-01-08T08:57:28;98574.03;;;5.10;100.00
70027;BME280;57506;50.092;15.804;2023-01-08T08:59:53;98584.38;;;5.13;100.00
70027;BME280;57506;50.092;15.804;2023-01-08T09:02:19;98571.19;;;5.12;100.00
70027;BME280;57506;50.092;15.804;2023-01-08T09:04:45;98573.69;;;5.13;100.00
70027;BME280;57506;50.092;15.804;2023-01-08T09:07:10;98576.06;;;5.08;100.00
70027;BME280;57506;50.092;15.804;2023-01-08T09:09:36;98579.53;;;5.17;100.00
70027;BME280;57506;50.092;15.804;2023-01-08T09:12:01;98577.38;;;5.12;100.00
70027;BME280;57506;50.092;15.804;2023-01-08T09:14:27;98575.03;;;5.17;100.00
70027;BME280;57506;50.092;15.804;2023-01-08T09:16:53;98577.94;;;5.31;100.00
70027;BME280;57506;50.092;15.804;2023-01-08T09:19:19;98569.03;;;5.38;100.00
70027;BME280;57506;50.092;15.804;2023-01-08T09:21:44;98568.50;;;5.51;100.00
70027;BME280;57506;50.092;15.804;2023-01-08T09:24:10;98573.59;;;5.60;100.00
70027;BME280;57506;50.092;15.804;2023-01-08T09:26:36;98600.50;;;5.59;100.00
70027;BME280;57506;50.092;15.804;2023-01-08T09:29:01;98602.75;;;5.70;100.00
70027;BME280;57506;50.092;15.804;2023-01-08T09:31:27;98602.31;;;5.89;100.00
70027;BME280;57506;50.092;15.804;2023-01-08T09:33:53;98589.97;;;5.88;100.00
70027;BME280;57506;50.092;15.804;2023-01-08T09:36:18;98598.84;;;5.81;100.00
70027;BME280;57506;50.092;15.804;2023-01-08T09:38:44;98601.13;;;5.92;100.00
70027;BME280;57506;50.092;15.804;2023-01-08T09:43:41;98593.59;;;5.87;100.00
70027;BME280;57506;50.092;15.804;2023-01-08T09:46:09;98587.75;;;5.92;100.00
70027;BME280;57506;50.092;15.804;2023-01-08T09:48:38;98610.16;;;6.14;100.00
70027;BME280;57506;50.092;15.804;2023-01-08T09:51:09;98615.88;;;6.11;100.00
70027;BME280;57506;50.092;15.804;2023-01-08T09:53:36;98597.66;;;6.29;100.00
70027;BME280;57506;50.092;15.804;2023-01-08T09:56:05;98590.19;;;6.39;100.00
70027;BME280;57506;50.092;15.804;2023-01-08T09:58:40;98603.69;;;6.46;100.00
70027;BME280;57506;50.092;15.804;2023-01-08T10:01:12;98579.13;;;6.42;100.00
70027;BME280;57506;50.092;15.804;2023-01-08T10:03:47;98600.25;;;6.37;100.00
70027;BME280;57506;50.092;15.804;2023-01-08T10:06:14;98601.56;;;6.41;100.00
70027;BME280;57506;50.092;15.804;2023-01-08T10:08:40;98596.34;;;6.25;100.00
70027;BME280;57506;50.092;15.804;2023-01-08T10:11:07;98576.41;;;6.13;100.00
70027;BME280;57506;50.092;15.804;2023-01-08T10:13:36;98566.75;;;6.04;100.00
70027;BME280;57506;50.092;15.804;2023-01-08T10:16:08;98572.13;;;6.04;100.00
70027;BME280;57506;50.092;15.804;2023-01-08T10:18:36;98534.47;;;5.90;100.00
70027;BME280;57506;50.092;15.804;2023-01-08T10:21:02;98558.38;;;6.07;100.00
70027;BME280;57506;50.092;15.804;2023-01-08T10:23:28;98567.72;;;6.11;100.00
70027;BME280;57506;50.092;15.804;2023-01-08T10:25:56;98583.78;;;6.11;100.00
70027;BME280;57506;50.092;15.804;2023-01-08T10:28:30;98581.41;;;6.16;100.00
70027;BME280;57506;50.092;15.804;2023-01-08T10:31:04;98573.63;;;6.21;100.00
70027;BME280;57506;50.092;15.804;2023-01-08T10:33:38;98580.78;;;6.28;100.00
70027;BME280;57506;50.092;15.804;2023-01-08T10:36:07;98583.50;;;6.20;100.00
70027;BME280;57506;50.092;15.804;2023-01-08T10:38:36;98564.34;;;6.17;100.00
70027;BME280;57506;50.092;15.804;2023-01-08T10:41:08;98571.97;;;6.20;100.00
70027;BME280;57506;50.092;15.804;2023-01-08T10:49:01;98590.50;;;6.44;100.00
70027;BME280;57506;50.092;15.804;2023-01-08T10:51:30;98593.00;;;6.46;100.00
70027;BME280;57506;50.092;15.804;2023-01-08T10:54:11;98593.19;;;6.59;100.00
70027;BME280;57506;50.092;15.804;2023-01-08T10:56:42;98593.00;;;6.46;100.00
70027;BME280;57506;50.092;15.804;2023-01-08T10:59:21;98606.22;;;6.62;100.00
70027;BME280;57506;50.092;15.804;2023-01-08T11:01:49;98610.16;;;6.66;100.00
70027;BME280;57506;50.092;15.804;2023-01-08T11:04:28;98616.00;;;6.70;100.00
70027;BME280;57506;50.092;15.804;2023-01-08T11:07:03;98617.47;;;6.72;100.00
70027;BME280;57506;50.092;15.804;2023-01-08T11:09:38;98619.50;;;6.85;100.00
70027;BME280;57506;50.092;15.804;2023-01-08T11:12:29;98613.50;;;6.83;100.00
70027;BME280;57506;50.092;15.804;2023-01-08T11:14:55;98621.53;;;6.83;100.00
70027;BME280;57506;50.092;15.804;2023-01-08T11:17:24;98609.25;;;6.88;100.00
70027;BME280;57506;50.092;15.804;2023-01-08T11:19:50;98607.97;;;6.84;100.00
70027;BME280;57506;50.092;15.804;2023-01-08T11:24:45;98593.19;;;6.59;100.00
70027;BME280;57506;50.092;15.804;2023-01-08T11:27:34;98594.72;;;6.53;100.00
70027;BME280;57506;50.092;15.804;2023-01-08T11:30:15;98598.69;;;6.43;100.00
70027;BME280;57506;50.092;15.804;2023-01-08T11:33:05;98569.16;;;6.36;100.00
70027;BME280;57506;50.092;15.804;2023-01-08T11:36:19;98569.59;;;6.25;100.00
70027;BME280;57506;50.092;15.804;2023-01-08T11:38:47;98565.69;;;6.13;100.00
70027;BME280;57506;50.092;15.804;2023-01-08T11:47:01;98570.44;;;6.40;100.00
70027;BME280;57506;50.092;15.804;2023-01-08T11:52:19;98588.94;;;6.64;100.00
70027;BME280;57506;50.092;15.804;2023-01-08T12:03:24;98560.69;;;6.62;100.00
70027;BME280;57506;50.092;15.804;2023-01-08T12:11:28;98581.09;;;6.78;100.00
70027;BME280;57506;50.092;15.804;2023-01-08T12:17:09;98575.16;;;6.67;100.00
70027;BME280;57506;50.092;15.804;2023-01-08T12:33:34;98549.88;;;6.55;100.00
70027;BME280;57506;50.092;15.804;2023-01-08T12:36:07;98545.34;;;6.41;100.00
70027;BME280;57506;50.092;15.804;2023-01-08T12:38:39;98526.25;;;6.44;100.00
70027;BME280;57506;50.092;15.804;2023-01-08T12:41:13;98532.81;;;6.71;100.00
70027;BME280;57506;50.092;15.804;2023-01-08T12:44:10;98542.59;;;6.79;100.00
70027;BME280;57506;50.092;15.804;2023-01-08T12:46:44;98529.56;;;6.76;100.00
70027;BME280;57506;50.092;15.804;2023-01-08T12:49:16;98533.56;;;6.80;100.00
70027;BME280;57506;50.092;15.804;2023-01-08T12:54:49;98529.28;;;6.56;100.00
70027;BME280;57506;50.092;15.804;2023-01-08T13:03:28;98522.03;;;6.64;100.00
70027;BME280;57506;50.092;15.804;2023-01-08T13:06:05;98531.72;;;6.65;100.00
70027;BME280;57506;50.092;15.804;2023-01-08T13:08:34;98531.44;;;6.60;100.00
70027;BME280;57506;50.092;15.804;2023-01-08T13:11:01;98532.25;;;6.76;100.00
70027;BME280;57506;50.092;15.804;2023-01-08T13:13:29;98535.66;;;6.70;100.00
70027;BME280;57506;50.092;15.804;2023-01-08T13:16:28;98531.06;;;6.63;100.00
70027;BME280;57506;50.092;15.804;2023-01-08T13:18:56;98522.38;;;6.61;100.00
70027;BME280;57506;50.092;15.804;2023-01-08T13:21:42;98499.56;;;6.51;100.00
70027;BME280;57506;50.092;15.804;2023-01-08T13:26:56;98494.69;;;6.40;100.00
70027;BME280;57506;50.092;15.804;2023-01-08T13:29:43;98524.66;;;6.50;100.00
70027;BME280;57506;50.092;15.804;2023-01-08T13:32:42;98521.72;;;6.45;100.00
70027;BME280;57506;50.092;15.804;2023-01-08T13:37:42;98498.56;;;6.37;100.00
70027;BME280;57506;50.092;15.804;2023-01-08T13:40:37;98504.38;;;6.41;100.00
70027;BME280;57506;50.092;15.804;2023-01-08T13:43:09;98515.72;;;6.57;100.00
70027;BME280;57506;50.092;15.804;2023-01-08T13:45:36;98510.09;;;6.38;100.00
70027;BME280;57506;50.092;15.804;2023-01-08T13:48:02;98510.84;;;6.46;100.00
70027;BME280;57506;50.092;15.804;2023-01-08T13:50:28;98512.13;;;6.50;100.00
70027;BME280;57506;50.092;15.804;2023-01-08T13:53:04;98515.72;;;6.43;100.00
70027;BME280;57506;50.092;15.804;2023-01-08T13:55:32;98518.22;;;6.44;100.00
70027;BME280;57506;50.092;15.804;2023-01-08T13:58:07;98518.22;;;6.44;100.00
70027;BME280;57506;50.092;15.804;2023-01-08T14:00:53;98508.91;;;6.40;100.00
70027;BME280;57506;50.092;15.804;2023-01-08T14:03:35;98527.81;;;6.53;100.00
70027;BME280;57506;50.092;15.804;2023-01-08T14:06:15;98498.38;;;6.24;100.00
70027;BME280;57506;50.092;15.804;2023-01-08T14:08:52;98519.41;;;6.42;100.00
70027;BME280;57506;50.092;15.804;2023-01-08T14:11:19;98517.09;;;6.39;100.00
70027;BME280;57506;50.092;15.804;2023-01-08T14:13:47;98511.09;;;6.22;100.00
70027;BME280;57506;50.092;15.804;2023-01-08T14:16:14;98522.56;;;6.30;100.00
70027;BME280;57506;50.092;15.804;2023-01-08T14:18:41;98530.00;;;6.35;100.00